sensor_id;sensor_type;location;lat;lon;timestamp;temperature;humidity
2913;DHT22;1466;48.778;9.166;2023-02-28T00:00:08;1.90;77.30
2913;DHT22;1466;48.778;9.166;2023-02-28T00:02:37;1.90;77.30
2913;DHT22;1466;48.778;9.166;2023-02-28T00:05:03;1.90;77.30
2913;DHT22;1466;48.778;9.166;2023-02-28T00:07:31;1.90;77.60
2913;DHT22;1466;48.778;9.166;2023-02-28T00:09:58;1.90;77.60
2913;DHT22;1466;48.778;9.166;2023-02-28T00:12:24;1.90;77.70
2913;DHT22;1466;48.778;9.166;2023-02-28T00:14:50;1.80;77.70
2913;DHT22;1466;48.778;9.166;2023-02-28T00:17:15;1.80;77.90
2913;DHT22;1466;48.778;9.166;2023-02-28T00:19:43;1.80;77.80
2913;DHT22;1466;48.778;9.166;2023-02-28T00:22:09;1.80;77.80
2913;DHT22;1466;48.778;9.166;2023-02-28T00:24:35;1.80;77.80
2913;DHT22;1466;48.778;9.166;2023-02-28T00:27:00;1.70;78.00
2913;DHT22;1466;48.778;9.166;2023-02-28T00:29:26;1.70;78.10
2913;DHT22;1466;48.778;9.166;2023-02-28T00:31:52;1.70;78.30
2913;DHT22;1466;48.778;9.166;2023-02-28T00:34:17;1.70;78.30
2913;DHT22;1466;48.778;9.166;2023-02-28T00:36:43;1.60;78.50
2913;DHT22;1466;48.778;9.166;2023-02-28T00:39:11;1.60;78.60
2913;DHT22;1466;48.778;9.166;2023-02-28T00:41:36;1.60;78.90
2913;DHT22;1466;48.778;9.166;2023-02-28T00:44:02;1.60;79.10
2913;DHT22;1466;48.778;9.166;2023-02-28T00:46:28;1.60;79.10
2913;DHT22;1466;48.778;9.166;2023-02-28T00:48:53;1.60;79.20
2913;DHT22;1466;48.778;9.166;2023-02-28T00:51:19;1.50;79.30
2913;DHT22;1466;48.778;9.166;2023-02-28T00:53:44;1.50;79.60
2913;DHT22;1466;48.778;9.166;2023-02-28T00:56:10;1.40;80.40
2913;DHT22;1466;48.778;9.166;2023-02-28T00:58:35;1.40;80.00
2913;DHT22;1466;48.778;9.166;2023-02-28T01:01:01;1.40;80.20
2913;DHT22;1466;48.778;9.166;2023-02-28T01:03:27;1.50;80.30
2913;DHT22;1466;48.778;9.166;2023-02-28T01:05:52;1.50;80.30
2913;DHT22;1466;48.778;9.166;2023-02-28T01:08:18;1.50;80.40
2913;DHT22;1466;48.778;9.166;2023-02-28T01:10:44;1.50;80.40
2913;DHT22;1466;48.778;9.166;2023-02-28T01:13:11;1.50;80.50
2913;DHT22;1466;48.778;9.166;2023-02-28T01:15:45;1.50;80.60
2913;DHT22;1466;48.778;9.166;2023-02-28T01:18:11;1.50;80.90
2913;DHT22;1466;48.778;9.166;2023-02-28T01:20:37;1.40;81.00
2913;DHT22;1466;48.778;9.166;2023-02-28T01:23:03;1.40;81.20
2913;DHT22;1466;48.778;9.166;2023-02-28T01:25:28;1.40;81.60
2913;DHT22;1466;48.778;9.166;2023-02-28T01:27:54;1.40;81.70
2913;DHT22;1466;48.778;9.166;2023-02-28T01:30:20;1.40;81.90
2913;DHT22;1466;48.778;9.166;2023-02-28T01:32:45;1.40;82.10
2913;DHT22;1466;48.778;9.166;2023-02-28T01:35:11;1.40;82.40
2913;DHT22;1466;48.778;9.166;2023-02-28T01:37:36;1.40;82.30
2913;DHT22;1466;48.778;9.166;2023-02-28T01:40:02;1.40;82.50
2913;DHT22;1466;48.778;9.166;2023-02-28T01:42:28;1.30;82.70
2913;DHT22;1466;48.778;9.166;2023-02-28T01:47:40;1.40;82.90
2913;DHT22;1466;48.778;9.166;2023-02-28T01:50:11;1.50;82.90
2913;DHT22;1466;48.778;9.166;2023-02-28T01:52:39;1.50;83.00
2913;DHT22;1466;48.778;9.166;2023-02-28T01:55:07;1.50;83.10
2913;DHT22;1466;48.778;9.166;2023-02-28T01:57:46;1.50;83.30
2913;DHT22;1466;48.778;9.166;2023-02-28T02:00:16;1.30;84.00
2913;DHT22;1466;48.778;9.166;2023-02-28T02:02:44;1.30;84.30
2913;DHT22;1466;48.778;9.166;2023-02-28T02:05:16;1.30;84.60
2913;DHT22;1466;48.778;9.166;2023-02-28T02:07:45;1.30;84.50
2913;DHT22;1466;48.778;9.166;2023-02-28T02:10:24;1.30;84.60
2913;DHT22;1466;48.778;9.166;2023-02-28T02:13:05;1.40;84.80
2913;DHT22;1466;48.778;9.166;2023-02-28T02:15:51;1.40;84.90
2913;DHT22;1466;48.778;9.166;2023-02-28T02:18:31;1.30;84.90
2913;DHT22;1466;48.778;9.166;2023-02-28T02:26:30;1.30;85.60
2913;DHT22;1466;48.778;9.166;2023-02-28T02:37:20;1.20;87.00
2913;DHT22;1466;48.778;9.166;2023-02-28T02:39:53;1.20;87.20
2913;DHT22;1466;48.778;9.166;2023-02-28T02:45:27;1.20;88.00
2913;DHT22;1466;48.778;9.166;2023-02-28T02:47:56;1.30;88.70
2913;DHT22;1466;48.778;9.166;2023-02-28T02:50:31;1.30;88.00
2913;DHT22;1466;48.778;9.166;2023-02-28T02:53:01;1.20;88.10
2913;DHT22;1466;48.778;9.166;2023-02-28T02:55:28;1.20;88.40
2913;DHT22;1466;48.778;9.166;2023-02-28T02:58:19;1.20;88.80
2913;DHT22;1466;48.778;9.166;2023-02-28T03:00:48;1.20;89.00
2913;DHT22;1466;48.778;9.166;2023-02-28T03:03:17;1.20;89.10
2913;DHT22;1466;48.778;9.166;2023-02-28T03:05:49;1.20;89.10
2913;DHT22;1466;48.778;9.166;2023-02-28T03:08:15;1.30;89.30
2913;DHT22;1466;48.778;9.166;2023-02-28T03:10:42;1.30;89.40
2913;DHT22;1466;48.778;9.166;2023-02-28T03:16:07;1.30;89.70
2913;DHT22;1466;48.778;9.166;2023-02-28T03:24:19;1.30;90.20
2913;DHT22;1466;48.778;9.166;2023-02-28T03:26:55;1.30;90.20
2913;DHT22;1466;48.778;9.166;2023-02-28T03:29:34;1.30;90.20
2913;DHT22;1466;48.778;9.166;2023-02-28T03:32:16;1.30;90.30
2913;DHT22;1466;48.778;9.166;2023-02-28T03:34:57;1.40;90.40
2913;DHT22;1466;48.778;9.166;2023-02-28T03:37:25;1.30;90.40
2913;DHT22;1466;48.778;9.166;2023-02-28T03:39:59;1.30;90.60
2913;DHT22;1466;48.778;9.166;2023-02-28T03:42:29;1.20;90.80
2913;DHT22;1466;48.778;9.166;2023-02-28T03:45:04;1.20;90.90
2913;DHT22;1466;48.778;9.166;2023-02-28T03:47:41;1.10;91.00
2913;DHT22;1466;48.778;9.166;2023-02-28T03:52:52;1.20;91.30
2913;DHT22;1466;48.778;9.166;2023-02-28T03:55:19;1.20;91.20
2913;DHT22;1466;48.778;9.166;2023-02-28T04:00:38;1.20;91.30
2913;DHT22;1466;48.778;9.166;2023-02-28T04:03:05;1.30;91.50
2913;DHT22;1466;48.778;9.166;2023-02-28T04:05:31;1.30;91.40
2913;DHT22;1466;48.778;9.166;2023-02-28T04:08:07;1.30;91.50
2913;DHT22;1466;48.778;9.166;2023-02-28T04:10:33;1.30;91.50
2913;DHT22;1466;48.778;9.166;2023-02-28T04:12:59;1.20;91.60
2913;DHT22;1466;48.778;9.166;2023-02-28T04:15:24;1.30;91.70
2913;DHT22;1466;48.778;9.166;2023-02-28T04:17:52;1.30;91.80
2913;DHT22;1466;48.778;9.166;2023-02-28T04:20:18;1.30;91.80
2913;DHT22;1466;48.778;9.166;2023-02-28T04:22:44;1.30;91.80
2913;DHT22;1466;48.778;9.166;2023-02-28T04:25:09;1.40;91.90
2913;DHT22;1466;48.778;9.166;2023-02-28T04:27:35;1.40;91.90
2913;DHT22;1466;48.778;9.166;2023-02-28T04:30:00;1.40;91.90
2913;DHT22;1466;48.778;9.166;2023-02-28T04:32:26;1.40;91.90
2913;DHT22;1466;48.778;9.166;2023-02-28T04:34:51;1.40;91.80
2913;DHT22;1466;48.778;9.166;2023-02-28T04:37:17;1.40;91.80
2913;DHT22;1466;48.778;9.166;2023-02-28T04:39:43;1.40;91.90
2913;DHT22;1466;48.778;9.166;2023-02-28T04:42:09;1.40;91.90
2913;DHT22;1466;48.778;9.166;2023-02-28T04:44:35;1.40;91.90
2913;DHT22;1466;48.778;9.166;2023-02-28T04:47:00;1.40;92.10
2913;DHT22;1466;48.778;9.166;2023-02-28T04:49:26;1.40;92.10
2913;DHT22;1466;48.778;9.166;2023-02-28T04:51:52;1.40;92.10
2913;DHT22;1466;48.778;9.166;2023-02-28T04:54:18;1.50;92.10
2913;DHT22;1466;48.778;9.166;2023-02-28T04:56:44;1.50;92.20
2913;DHT22;1466;48.778;9.166;2023-02-28T04:59:09;1.40;92.20
2913;DHT22;1466;48.778;9.166;2023-02-28T05:01:35;1.50;92.30
2913;DHT22;1466;48.778;9.166;2023-02-28T05:04:02;1.50;92.30
2913;DHT22;1466;48.778;9.166;2023-02-28T05:06:30;1.50;92.30
2913;DHT22;1466;48.778;9.166;2023-02-28T05:08:56;1.50;92.30
2913;DHT22;1466;48.778;9.166;2023-02-28T05:11:31;1.50;92.20
2913;DHT22;1466;48.778;9.166;2023-02-28T05:14:05;1.50;92.30
2913;DHT22;1466;48.778;9.166;2023-02-28T05:16:32;1.40;92.30
2913;DHT22;1466;48.778;9.166;2023-02-28T05:18:58;1.40;92.40
2913;DHT22;1466;48.778;9.166;2023-02-28T05:21:27;1.40;92.40
2913;DHT22;1466;48.778;9.166;2023-02-28T05:23:53;1.30;92.50
2913;DHT22;1466;48.778;9.166;2023-02-28T05:26:19;1.40;92.60
2913;DHT22;1466;48.778;9.166;2023-02-28T05:28:46;1.40;92.60
2913;DHT22;1466;48.778;9.166;2023-02-28T05:31:11;1.30;92.60
2913;DHT22;1466;48.778;9.166;2023-02-28T05:33:37;1.30;92.70
2913;DHT22;1466;48.778;9.166;2023-02-28T05:36:03;1.30;92.80
2913;DHT22;1466;48.778;9.166;2023-02-28T05:38:29;1.40;92.80
2913;DHT22;1466;48.778;9.166;2023-02-28T05:40:55;1.50;92.70
2913;DHT22;1466;48.778;9.166;2023-02-28T05:43:21;1.40;92.70
2913;DHT22;1466;48.778;9.166;2023-02-28T05:45:47;1.40;92.70
2913;DHT22;1466;48.778;9.166;2023-02-28T05:48:12;1.40;92.80
2913;DHT22;1466;48.778;9.166;2023-02-28T05:50:38;1.40;92.90
2913;DHT22;1466;48.778;9.166;2023-02-28T05:53:04;1.50;92.90
2913;DHT22;1466;48.778;9.166;2023-02-28T05:55:29;1.50;93.00
2913;DHT22;1466;48.778;9.166;2023-02-28T05:57:55;1.50;92.90
2913;DHT22;1466;48.778;9.166;2023-02-28T06:00:21;1.50;92.90
2913;DHT22;1466;48.778;9.166;2023-02-28T06:02:47;1.50;92.90
2913;DHT22;1466;48.778;9.166;2023-02-28T06:05:15;1.50;92.90
2913;DHT22;1466;48.778;9.166;2023-02-28T06:07:41;1.50;92.90
2913;DHT22;1466;48.778;9.166;2023-02-28T06:10:07;1.60;93.10
2913;DHT22;1466;48.778;9.166;2023-02-28T06:12:33;1.60;93.00
2913;DHT22;1466;48.778;9.166;2023-02-28T06:14:58;1.60;93.10
2913;DHT22;1466;48.778;9.166;2023-02-28T06:17:24;1.50;93.10
2913;DHT22;1466;48.778;9.166;2023-02-28T06:19:50;1.50;93.10
2913;DHT22;1466;48.778;9.166;2023-02-28T06:22:16;1.50;93.20
2913;DHT22;1466;48.778;9.166;2023-02-28T06:24:41;1.50;93.20
2913;DHT22;1466;48.778;9.166;2023-02-28T06:27:07;1.50;93.30
2913;DHT22;1466;48.778;9.166;2023-02-28T06:29:34;1.50;93.30
2913;DHT22;1466;48.778;9.166;2023-02-28T06:32:00;1.50;93.40
2913;DHT22;1466;48.778;9.166;2023-02-28T06:34:26;1.50;93.40
2913;DHT22;1466;48.778;9.166;2023-02-28T06:36:52;1.50;93.40
2913;DHT22;1466;48.778;9.166;2023-02-28T06:39:18;1.50;93.40
2913;DHT22;1466;48.778;9.166;2023-02-28T06:41:44;1.50;93.40
2913;DHT22;1466;48.778;9.166;2023-02-28T06:44:16;1.50;93.50
2913;DHT22;1466;48.778;9.166;2023-02-28T06:46:44;1.60;93.50
2913;DHT22;1466;48.778;9.166;2023-02-28T06:49:11;1.60;93.30
2913;DHT22;1466;48.778;9.166;2023-02-28T06:51:38;1.60;93.30
2913;DHT22;1466;48.778;9.166;2023-02-28T06:54:05;1.60;93.30
2913;DHT22;1466;48.778;9.166;2023-02-28T06:56:31;1.60;93.20
2913;DHT22;1466;48.778;9.166;2023-02-28T06:58:56;1.70;93.30
2913;DHT22;1466;48.778;9.166;2023-02-28T07:01:22;1.70;93.20
2913;DHT22;1466;48.778;9.166;2023-02-28T07:03:49;1.70;93.20
2913;DHT22;1466;48.778;9.166;2023-02-28T07:06:18;1.80;93.20
2913;DHT22;1466;48.778;9.166;2023-02-28T07:08:43;1.90;93.20
2913;DHT22;1466;48.778;9.166;2023-02-28T07:11:10;1.90;93.10
2913;DHT22;1466;48.778;9.166;2023-02-28T07:13:36;1.90;93.10
2913;DHT22;1466;48.778;9.166;2023-02-28T07:16:07;1.90;93.00
2913;DHT22;1466;48.778;9.166;2023-02-28T07:18:34;1.90;93.10
2913;DHT22;1466;48.778;9.166;2023-02-28T07:21:05;2.00;93.10
2913;DHT22;1466;48.778;9.166;2023-02-28T07:23:32;2.00;92.90
2913;DHT22;1466;48.778;9.166;2023-02-28T07:25:57;2.00;92.90
2913;DHT22;1466;48.778;9.166;2023-02-28T07:28:23;1.90;92.80
2913;DHT22;1466;48.778;9.166;2023-02-28T07:30:49;2.00;92.90
2913;DHT22;1466;48.778;9.166;2023-02-28T07:33:15;2.00;92.90
2913;DHT22;1466;48.778;9.166;2023-02-28T07:35:41;2.00;92.80
2913;DHT22;1466;48.778;9.166;2023-02-28T07:38:06;2.00;92.90
2913;DHT22;1466;48.778;9.166;2023-02-28T07:40:35;2.10;92.90
2913;DHT22;1466;48.778;9.166;2023-02-28T07:43:02;2.10;92.80
2913;DHT22;1466;48.778;9.166;2023-02-28T07:45:29;2.10;92.70
2913;DHT22;1466;48.778;9.166;2023-02-28T07:47:55;2.10;92.60
2913;DHT22;1466;48.778;9.166;2023-02-28T07:50:21;2.10;92.60
2913;DHT22;1466;48.778;9.166;2023-02-28T07:52:46;2.00;92.70
2913;DHT22;1466;48.778;9.166;2023-02-28T07:55:12;2.00;92.60
2913;DHT22;1466;48.778;9.166;2023-02-28T07:57:40;2.00;92.70
2913;DHT22;1466;48.778;9.166;2023-02-28T08:00:10;2.00;92.60
2913;DHT22;1466;48.778;9.166;2023-02-28T08:02:36;2.10;92.60
2913;DHT22;1466;48.778;9.166;2023-02-28T08:05:01;2.00;92.40
2913;DHT22;1466;48.778;9.166;2023-02-28T08:07:27;1.90;92.10
2913;DHT22;1466;48.778;9.166;2023-02-28T08:09:53;1.90;92.30
2913;DHT22;1466;48.778;9.166;2023-02-28T08:12:18;1.90;92.40
2913;DHT22;1466;48.778;9.166;2023-02-28T08:14:44;2.00;92.50
2913;DHT22;1466;48.778;9.166;2023-02-28T08:17:10;2.00;92.50
2913;DHT22;1466;48.778;9.166;2023-02-28T08:19:36;2.10;92.10
2913;DHT22;1466;48.778;9.166;2023-02-28T08:22:02;2.10;91.80
2913;DHT22;1466;48.778;9.166;2023-02-28T08:24:28;2.10;91.80
2913;DHT22;1466;48.778;9.166;2023-02-28T08:26:53;2.10;91.80
2913;DHT22;1466;48.778;9.166;2023-02-28T08:29:19;2.10;91.60
2913;DHT22;1466;48.778;9.166;2023-02-28T08:31:44;2.10;91.50
2913;DHT22;1466;48.778;9.166;2023-02-28T08:34:13;2.10;91.30
2913;DHT22;1466;48.778;9.166;2023-02-28T08:36:40;2.10;91.30
2913;DHT22;1466;48.778;9.166;2023-02-28T08:39:06;2.10;91.40
2913;DHT22;1466;48.778;9.166;2023-02-28T08:41:32;2.10;91.30
2913;DHT22;1466;48.778;9.166;2023-02-28T08:43:58;2.00;91.30
2913;DHT22;1466;48.778;9.166;2023-02-28T08:46:24;2.00;91.20
2913;DHT22;1466;48.778;9.166;2023-02-28T08:48:54;2.00;91.30
2913;DHT22;1466;48.778;9.166;2023-02-28T08:51:21;2.00;91.20
2913;DHT22;1466;48.778;9.166;2023-02-28T08:53:53;2.00;91.50
2913;DHT22;1466;48.778;9.166;2023-02-28T08:56:19;2.00;91.30
2913;DHT22;1466;48.778;9.166;2023-02-28T08:58:46;2.10;91.30
2913;DHT22;1466;48.778;9.166;2023-02-28T09:01:14;2.10;91.20
2913;DHT22;1466;48.778;9.166;2023-02-28T09:03:41;2.10;91.20
2913;DHT22;1466;48.778;9.166;2023-02-28T09:06:08;2.00;91.20
2913;DHT22;1466;48.778;9.166;2023-02-28T09:08:35;2.10;91.40
2913;DHT22;1466;48.778;9.166;2023-02-28T09:11:01;2.20;91.30
2913;DHT22;1466;48.778;9.166;2023-02-28T09:13:27;2.10;91.20
2913;DHT22;1466;48.778;9.166;2023-02-28T09:15:53;2.20;91.10
2913;DHT22;1466;48.778;9.166;2023-02-28T09:18:20;2.20;91.20
2913;DHT22;1466;48.778;9.166;2023-02-28T09:20:46;2.20;91.10
2913;DHT22;1466;48.778;9.166;2023-02-28T09:23:12;2.30;91.10
2913;DHT22;1466;48.778;9.166;2023-02-28T09:25:49;2.20;90.80
2913;DHT22;1466;48.778;9.166;2023-02-28T09:28:15;2.20;90.90
2913;DHT22;1466;48.778;9.166;2023-02-28T09:30:43;2.30;91.00
2913;DHT22;1466;48.778;9.166;2023-02-28T09:33:09;2.40;90.90
2913;DHT22;1466;48.778;9.166;2023-02-28T09:35:35;2.40;90.90
2913;DHT22;1466;48.778;9.166;2023-02-28T09:38:03;2.50;90.80
2913;DHT22;1466;48.778;9.166;2023-02-28T09:40:28;2.50;90.80
2913;DHT22;1466;48.778;9.166;2023-02-28T09:42:57;2.60;90.60
2913;DHT22;1466;48.778;9.166;2023-02-28T09:45:39;2.60;90.50
2913;DHT22;1466;48.778;9.166;2023-02-28T09:48:32;2.70;90.60
2913;DHT22;1466;48.778;9.166;2023-02-28T09:53:53;2.80;90.30
2913;DHT22;1466;48.778;9.166;2023-02-28T09:56:24;2.90;90.30
2913;DHT22;1466;48.778;9.166;2023-02-28T10:02:24;2.90;90.10
2913;DHT22;1466;48.778;9.166;2023-02-28T10:09:54;3.10;90.00
2913;DHT22;1466;48.778;9.166;2023-02-28T10:12:21;3.10;90.00
2913;DHT22;1466;48.778;9.166;2023-02-28T10:14:50;3.20;89.80
2913;DHT22;1466;48.778;9.166;2023-02-28T10:17:21;3.20;89.70
2913;DHT22;1466;48.778;9.166;2023-02-28T10:20:03;3.20;89.60
2913;DHT22;1466;48.778;9.166;2023-02-28T10:22:48;3.30;89.30
2913;DHT22;1466;48.778;9.166;2023-02-28T10:25:21;3.30;88.80
2913;DHT22;1466;48.778;9.166;2023-02-28T10:27:48;3.30;89.10
2913;DHT22;1466;48.778;9.166;2023-02-28T10:30:14;3.40;89.10
2913;DHT22;1466;48.778;9.166;2023-02-28T10:32:53;3.50;89.00
2913;DHT22;1466;48.778;9.166;2023-02-28T10:35:23;3.50;88.60
2913;DHT22;1466;48.778;9.166;2023-02-28T10:37:55;3.70;88.60
2913;DHT22;1466;48.778;9.166;2023-02-28T10:43:01;3.90;88.20
2913;DHT22;1466;48.778;9.166;2023-02-28T10:45:32;3.90;87.50
2913;DHT22;1466;48.778;9.166;2023-02-28T10:55:39;3.80;87.30
2913;DHT22;1466;48.778;9.166;2023-02-28T10:58:26;3.90;87.00
2913;DHT22;1466;48.778;9.166;2023-02-28T11:00:53;3.80;86.70
2913;DHT22;1466;48.778;9.166;2023-02-28T11:03:32;3.70;86.50
2913;DHT22;1466;48.778;9.166;2023-02-28T11:05:58;3.70;86.70
2913;DHT22;1466;48.778;9.166;2023-02-28T11:08:24;3.60;86.60
2913;DHT22;1466;48.778;9.166;2023-02-28T11:10:55;3.60;86.70
2913;DHT22;1466;48.778;9.166;2023-02-28T11:13:28;4.00;87.30
2913;DHT22;1466;48.778;9.166;2023-02-28T11:15:58;4.40;87.30
2913;DHT22;1466;48.778;9.166;2023-02-28T11:18:30;4.70;86.30
2913;DHT22;1466;48.778;9.166;2023-02-28T11:21:01;4.90;85.20
2913;DHT22;1466;48.778;9.166;2023-02-28T11:23:30;5.10;84.40
2913;DHT22;1466;48.778;9.166;2023-02-28T11:26:00;5.10;84.00
2913;DHT22;1466;48.778;9.166;2023-02-28T11:28:32;5.20;83.70
2913;DHT22;1466;48.778;9.166;2023-02-28T11:31:02;5.30;83.80
2913;DHT22;1466;48.778;9.166;2023-02-28T11:33:52;5.50;83.70
2913;DHT22;1466;48.778;9.166;2023-02-28T11:36:27;5.60;83.00
2913;DHT22;1466;48.778;9.166;2023-02-28T11:38:55;5.60;82.40
2913;DHT22;1466;48.778;9.166;2023-02-28T11:46:58;5.40;82.10
2913;DHT22;1466;48.778;9.166;2023-02-28T11:49:38;5.30;81.60
2913;DHT22;1466;48.778;9.166;2023-02-28T11:52:21;5.20;81.90
2913;DHT22;1466;48.778;9.166;2023-02-28T11:54:59;5.10;81.90
2913;DHT22;1466;48.778;9.166;2023-02-28T11:57:36;5.20;82.20
2913;DHT22;1466;48.778;9.166;2023-02-28T12:09:28;5.60;82.00
2913;DHT22;1466;48.778;9.166;2023-02-28T12:12:15;5.60;81.30
2913;DHT22;1466;48.778;9.166;2023-02-28T12:15:19;5.50;81.40
2913;DHT22;1466;48.778;9.166;2023-02-28T12:20:45;5.50;81.80
2913;DHT22;1466;48.778;9.166;2023-02-28T12:28:35;5.80;81.10
2913;DHT22;1466;48.778;9.166;2023-02-28T12:31:08;5.80;80.70
2913;DHT22;1466;48.778;9.166;2023-02-28T12:33:38;5.90;80.80
2913;DHT22;1466;48.778;9.166;2023-02-28T12:36:09;5.80;80.20
2913;DHT22;1466;48.778;9.166;2023-02-28T12:38:49;5.70;80.90
2913;DHT22;1466;48.778;9.166;2023-02-28T12:44:02;5.70;80.00
2913;DHT22;1466;48.778;9.166;2023-02-28T12:46:50;5.80;80.00
2913;DHT22;1466;48.778;9.166;2023-02-28T12:49:21;5.90;79.90
2913;DHT22;1466;48.778;9.166;2023-02-28T12:51:49;5.90;79.70
2913;DHT22;1466;48.778;9.166;2023-02-28T13:00:15;6.20;79.90
2913;DHT22;1466;48.778;9.166;2023-02-28T13:11:48;6.60;79.30
2913;DHT22;1466;48.778;9.166;2023-02-28T13:14:37;6.70;78.70
2913;DHT22;1466;48.778;9.166;2023-02-28T13:19:46;6.60;78.60
2913;DHT22;1466;48.778;9.166;2023-02-28T13:22:40;6.70;78.70
2913;DHT22;1466;48.778;9.166;2023-02-28T13:27:48;6.80;78.20
2913;DHT22;1466;48.778;9.166;2023-02-28T13:35:50;6.80;77.60
2913;DHT22;1466;48.778;9.166;2023-02-28T13:38:33;6.80;77.70
2913;DHT22;1466;48.778;9.166;2023-02-28T13:44:05;6.80;77.20
2913;DHT22;1466;48.778;9.166;2023-02-28T13:46:38;6.90;77.70
2913;DHT22;1466;48.778;9.166;2023-02-28T13:49:31;6.90;77.50
2913;DHT22;1466;48.778;9.166;2023-02-28T14:00:13;6.90;76.50
2913;DHT22;1466;48.778;9.166;2023-02-28T14:05:33;7.00;76.70
2913;DHT22;1466;48.778;9.166;2023-02-28T14:08:21;7.00;76.40
2913;DHT22;1466;48.778;9.166;2023-02-28T14:10:51;7.10;76.30
2913;DHT22;1466;48.778;9.166;2023-02-28T14:13:43;7.10;76.00
2913;DHT22;1466;48.778;9.166;2023-02-28T14:16:14;7.10;76.20
2913;DHT22;1466;48.778;9.166;2023-02-28T14:21:32;7.20;76.10
2913;DHT22;1466;48.778;9.166;2023-02-28T14:37:47;7.10;75.20
2913;DHT22;1466;48.778;9.166;2023-02-28T14:40:33;7.00;75.40
2913;DHT22;1466;48.778;9.166;2023-02-28T14:43:02;7.10;75.70
2913;DHT22;1466;48.778;9.166;2023-02-28T14:45:34;7.20;75.70
2913;DHT22;1466;48.778;9.166;2023-02-28T14:48:02;7.20;75.30
2913;DHT22;1466;48.778;9.166;2023-02-28T14:50:34;7.20;74.80
2913;DHT22;1466;48.778;9.166;2023-02-28T14:53:00;7.10;74.80
2913;DHT22;1466;48.778;9.166;2023-02-28T14:55:29;7.00;75.10
2913;DHT22;1466;48.778;9.166;2023-02-28T14:58:00;7.00;75.50
2913;DHT22;1466;48.778;9.166;2023-02-28T15:00:33;7.10;75.50
2913;DHT22;1466;48.778;9.166;2023-02-28T15:03:00;7.20;75.60
2913;DHT22;1466;48.778;9.166;2023-02-28T15:08:16;7.10;75.10
2913;DHT22;1466;48.778;9.166;2023-02-28T15:10:44;7.00;75.30
2913;DHT22;1466;48.778;9.166;2023-02-28T15:13:13;7.00;75.70
2913;DHT22;1466;48.778;9.166;2023-02-28T15:15:56;7.00;75.80
2913;DHT22;1466;48.778;9.166;2023-02-28T15:21:36;7.00;76.00
2913;DHT22;1466;48.778;9.166;2023-02-28T15:24:41;7.10;75.90
2913;DHT22;1466;48.778;9.166;2023-02-28T15:27:29;7.10;75.90
2913;DHT22;1466;48.778;9.166;2023-02-28T15:29:59;7.10;76.00
2913;DHT22;1466;48.778;9.166;2023-02-28T15:32:34;7.10;76.10
2913;DHT22;1466;48.778;9.166;2023-02-28T15:35:27;7.10;76.00
2913;DHT22;1466;48.778;9.166;2023-02-28T15:37:56;7.00;76.20
2913;DHT22;1466;48.778;9.166;2023-02-28T15:40:23;7.00;76.50
2913;DHT22;1466;48.778;9.166;2023-02-28T15:43:22;6.90;76.50
2913;DHT22;1466;48.778;9.166;2023-02-28T15:46:12;6.90;77.00
2913;DHT22;1466;48.778;9.166;2023-02-28T15:48:55;6.90;77.30
2913;DHT22;1466;48.778;9.166;2023-02-28T15:53:57;6.70;77.10
2913;DHT22;1466;48.778;9.166;2023-02-28T15:56:38;6.70;77.50
2913;DHT22;1466;48.778;9.166;2023-02-28T15:59:15;6.70;77.40
2913;DHT22;1466;48.778;9.166;2023-02-28T16:01:41;6.60;77.40
2913;DHT22;1466;48.778;9.166;2023-02-28T16:09:23;6.50;78.10
2913;DHT22;1466;48.778;9.166;2023-02-28T16:11:50;6.50;78.20
2913;DHT22;1466;48.778;9.166;2023-02-28T16:14:21;6.50;78.40
2913;DHT22;1466;48.778;9.166;2023-02-28T16:16:50;6.50;78.30
2913;DHT22;1466;48.778;9.166;2023-02-28T16:19:17;6.50;78.20
2913;DHT22;1466;48.778;9.166;2023-02-28T16:21:43;6.50;78.40
2913;DHT22;1466;48.778;9.166;2023-02-28T16:24:08;6.50;78.50
2913;DHT22;1466;48.778;9.166;2023-02-28T16:26:34;6.60;78.50
2913;DHT22;1466;48.778;9.166;2023-02-28T16:29:02;6.50;78.30
2913;DHT22;1466;48.778;9.166;2023-02-28T16:31:29;6.30;78.40
2913;DHT22;1466;48.778;9.166;2023-02-28T16:33:55;6.30;78.80
2913;DHT22;1466;48.778;9.166;2023-02-28T16:36:23;6.30;79.10
2913;DHT22;1466;48.778;9.166;2023-02-28T16:38:50;6.30;79.10
2913;DHT22;1466;48.778;9.166;2023-02-28T16:41:20;6.30;79.10
2913;DHT22;1466;48.778;9.166;2023-02-28T16:43:48;6.20;79.20
2913;DHT22;1466;48.778;9.166;2023-02-28T16:46:15;6.20;79.30
2913;DHT22;1466;48.778;9.166;2023-02-28T16:48:42;6.20;79.50
2913;DHT22;1466;48.778;9.166;2023-02-28T16:51:15;6.20;79.60
2913;DHT22;1466;48.778;9.166;2023-02-28T16:53:41;6.20;79.40
2913;DHT22;1466;48.778;9.166;2023-02-28T16:56:15;6.20;79.30
2913;DHT22;1466;48.778;9.166;2023-02-28T16:58:41;6.20;79.50
2913;DHT22;1466;48.778;9.166;2023-02-28T17:01:07;6.20;79.50
2913;DHT22;1466;48.778;9.166;2023-02-28T17:03:33;6.10;79.50
2913;DHT22;1466;48.778;9.166;2023-02-28T17:05:58;6.00;79.50
2913;DHT22;1466;48.778;9.166;2023-02-28T17:08:24;6.00;79.70
2913;DHT22;1466;48.778;9.166;2023-02-28T17:10:50;5.90;79.80
2913;DHT22;1466;48.778;9.166;2023-02-28T17:13:16;5.90;80.10
2913;DHT22;1466;48.778;9.166;2023-02-28T17:15:41;5.90;80.20
2913;DHT22;1466;48.778;9.166;2023-02-28T17:18:14;5.90;80.30
2913;DHT22;1466;48.778;9.166;2023-02-28T17:20:41;5.90;80.40
2913;DHT22;1466;48.778;9.166;2023-02-28T17:23:08;5.90;80.50
2913;DHT22;1466;48.778;9.166;2023-02-28T17:25:33;5.80;80.40
2913;DHT22;1466;48.778;9.166;2023-02-28T17:27:59;5.80;80.60
2913;DHT22;1466;48.778;9.166;2023-02-28T17:30:26;5.80;81.50
2913;DHT22;1466;48.778;9.166;2023-02-28T17:32:53;5.80;80.80
2913;DHT22;1466;48.778;9.166;2023-02-28T17:35:19;5.80;80.90
2913;DHT22;1466;48.778;9.166;2023-02-28T17:37:45;5.70;81.20
2913;DHT22;1466;48.778;9.166;2023-02-28T17:40:20;5.80;81.00
2913;DHT22;1466;48.778;9.166;2023-02-28T17:42:45;5.80;81.00
2913;DHT22;1466;48.778;9.166;2023-02-28T17:45:12;5.80;81.10
2913;DHT22;1466;48.778;9.166;2023-02-28T17:47:38;5.70;81.20
2913;DHT22;1466;48.778;9.166;2023-02-28T17:50:05;5.70;81.30
2913;DHT22;1466;48.778;9.166;2023-02-28T17:52:32;5.70;81.30
2913;DHT22;1466;48.778;9.166;2023-02-28T17:55:03;5.70;81.30
2913;DHT22;1466;48.778;9.166;2023-02-28T17:57:29;5.80;81.50
2913;DHT22;1466;48.778;9.166;2023-02-28T17:59:55;5.70;81.50
2913;DHT22;1466;48.778;9.166;2023-02-28T18:02:20;5.80;81.90
2913;DHT22;1466;48.778;9.166;2023-02-28T18:04:46;5.80;82.00
2913;DHT22;1466;48.778;9.166;2023-02-28T18:07:14;5.70;82.10
2913;DHT22;1466;48.778;9.166;2023-02-28T18:09:40;5.70;82.30
2913;DHT22;1466;48.778;9.166;2023-02-28T18:12:06;5.70;82.30
2913;DHT22;1466;48.778;9.166;2023-02-28T18:14:31;5.60;82.30
2913;DHT22;1466;48.778;9.166;2023-02-28T18:16:57;5.70;82.50
2913;DHT22;1466;48.778;9.166;2023-02-28T18:19:23;5.70;82.60
2913;DHT22;1466;48.778;9.166;2023-02-28T18:21:52;5.70;82.60
2913;DHT22;1466;48.778;9.166;2023-02-28T18:24:20;5.60;82.90
2913;DHT22;1466;48.778;9.166;2023-02-28T18:26:49;5.50;83.20
2913;DHT22;1466;48.778;9.166;2023-02-28T18:29:23;5.50;83.40
2913;DHT22;1466;48.778;9.166;2023-02-28T18:31:50;5.30;84.30
2913;DHT22;1466;48.778;9.166;2023-02-28T18:34:16;5.30;83.90
2913;DHT22;1466;48.778;9.166;2023-02-28T18:36:41;5.30;84.00
2913;DHT22;1466;48.778;9.166;2023-02-28T18:39:09;5.20;84.00
2913;DHT22;1466;48.778;9.166;2023-02-28T18:41:36;5.30;84.10
2913;DHT22;1466;48.778;9.166;2023-02-28T18:44:02;5.30;84.00
2913;DHT22;1466;48.778;9.166;2023-02-28T18:46:27;5.30;84.10
2913;DHT22;1466;48.778;9.166;2023-02-28T18:48:53;5.30;84.20
2913;DHT22;1466;48.778;9.166;2023-02-28T18:51:21;5.30;84.20
2913;DHT22;1466;48.778;9.166;2023-02-28T18:53:47;5.30;84.30
2913;DHT22;1466;48.778;9.166;2023-02-28T18:56:15;5.30;84.30
2913;DHT22;1466;48.778;9.166;2023-02-28T18:58:42;5.30;84.30
2913;DHT22;1466;48.778;9.166;2023-02-28T19:01:34;5.20;84.30